createdAt,value
2018-02-19T00:00:04.938Z,101093.42
2018-02-19T00:02:32.362Z,101096.05
2018-02-19T00:04:59.793Z,101092.30
2018-02-19T00:07:27.644Z,101087.50
2018-02-19T00:09:55.066Z,101085.92
2018-02-19T00:12:22.485Z,101088.24
2018-02-19T00:14:49.927Z,101086.09
2018-02-19T00:17:17.346Z,101080.83
2018-02-19T00:19:44.786Z,101072.19
2018-02-19T00:22:12.217Z,101073.39
2018-02-19T00:24:39.641Z,101068.59
2018-02-19T00:27:07.072Z,101077.02
2018-02-19T00:29:34.551Z,101074.92
2018-02-19T00:32:01.978Z,101075.88
2018-02-19T00:34:29.401Z,101078.31
2018-02-19T00:36:56.841Z,101068.59
2018-02-19T00:39:24.283Z,101061.99
2018-02-19T00:41:51.698Z,101060.44
2018-02-19T00:44:19.118Z,101055.27
2018-02-19T00:46:46.545Z,101057.09
2018-02-19T00:49:13.994Z,101057.09
2018-02-19T00:51:41.414Z,101054.63
2018-02-19T00:54:08.822Z,101057.59
2018-02-19T00:56:36.242Z,101044.20
2018-02-19T00:59:03.665Z,101042.61
2018-02-19T01:01:31.095Z,101043.66
2018-02-19T01:03:58.517Z,101041.11
2018-02-19T01:06:25.949Z,101033.39
2018-02-19T01:08:53.362Z,101033.92
2018-02-19T01:11:20.782Z,101034.23
2018-02-19T01:13:48.193Z,101037.32
2018-02-19T01:16:15.610Z,101031.88
2018-02-19T01:18:43.042Z,101025.20
2018-02-19T01:21:10.459Z,101027.13
2018-02-19T01:23:37.873Z,101019.95
2018-02-19T01:26:05.300Z,101029.38
2018-02-19T01:28:32.727Z,101021.00
2018-02-19T01:31:00.137Z,101013.70
2018-02-19T01:33:27.555Z,101015.59
2018-02-19T01:35:54.982Z,101007.19
2018-02-19T01:38:22.397Z,101007.38
2018-02-19T01:40:49.814Z,101004.13
2018-02-19T01:43:17.249Z,101004.59
2018-02-19T01:45:44.668Z,100999.34
2018-02-19T01:48:12.096Z,100998.69
2018-02-19T01:50:39.505Z,100991.44
2018-02-19T01:53:06.935Z,100990.82
2018-02-19T01:55:34.358Z,100986.14
2018-02-19T01:58:01.794Z,100976.81
2018-02-19T02:00:29.213Z,100976.46
2018-02-19T02:02:56.632Z,100974.03
2018-02-19T02:05:24.050Z,100969.48
2018-02-19T02:07:51.473Z,100966.92
2018-02-19T02:10:18.894Z,100962.57
2018-02-19T02:12:46.314Z,100959.95
2018-02-19T02:15:13.746Z,100954.23
2018-02-19T02:17:41.174Z,100961.75
2018-02-19T02:20:08.593Z,100955.63
2018-02-19T02:22:36.074Z,100957.67
2018-02-19T02:25:03.491Z,100961.03
2018-02-19T02:27:30.920Z,100952.19
2018-02-19T02:29:58.329Z,100952.81
2018-02-19T02:32:25.786Z,100942.39
2018-02-19T02:34:53.215Z,100941.36
2018-02-19T02:37:20.625Z,100941.59
2018-02-19T02:39:48.060Z,100935.53
2018-02-19T02:42:15.475Z,100939.58
2018-02-19T02:44:42.895Z,100946.17
2018-02-19T02:47:10.316Z,100947.06
2018-02-19T02:49:37.747Z,100944.02
2018-02-19T02:52:05.169Z,100937.73
2018-02-19T02:54:32.578Z,100931.41
2018-02-19T02:57:00.014Z,100930.05
2018-02-19T02:59:27.435Z,100926.20
2018-02-19T03:01:54.854Z,100924.88
2018-02-19T03:04:22.279Z,100923.11
2018-02-19T03:06:49.706Z,100926.12
2018-02-19T03:09:17.140Z,100923.38
2018-02-19T03:11:44.541Z,100925.04
2018-02-19T03:14:11.968Z,100920.88
2018-02-19T03:16:39.381Z,100920.45
2018-02-19T03:19:06.821Z,100918.98
2018-02-19T03:21:34.234Z,100913.31
2018-02-19T03:24:01.662Z,100916.66
2018-02-19T03:26:29.074Z,100913.96
2018-02-19T03:28:56.499Z,100910.95
2018-02-19T03:31:23.919Z,100913.49
2018-02-19T03:33:51.337Z,100913.54
2018-02-19T03:36:18.778Z,100912.92
2018-02-19T03:38:46.204Z,100915.73
2018-02-19T03:41:13.635Z,100915.65
2018-02-19T03:43:41.054Z,100917.73
2018-02-19T03:46:08.469Z,100918.95
2018-02-19T03:48:35.895Z,100926.59
2018-02-19T03:51:03.323Z,100913.25
2018-02-19T03:53:30.752Z,100919.81
2018-02-19T03:55:58.169Z,100926.69
2018-02-19T03:58:25.599Z,100920.28
2018-02-19T04:00:53.015Z,100924.98
2018-02-19T04:03:20.430Z,100919.96
2018-02-19T04:05:47.854Z,100909.34
2018-02-19T04:08:15.313Z,100909.14
2018-02-19T04:10:42.740Z,100907.87
2018-02-19T04:13:10.170Z,100904.52
2018-02-19T04:15:37.828Z,100906.74
2018-02-19T04:18:05.255Z,100906.94
2018-02-19T04:20:32.682Z,100909.91
2018-02-19T04:23:00.111Z,100905.77
2018-02-19T04:25:27.526Z,100903.89
2018-02-19T04:27:54.980Z,100902.85
2018-02-19T04:30:22.389Z,100902.85
2018-02-19T04:32:49.818Z,100896.78
2018-02-19T04:35:17.245Z,100895.17
2018-02-19T04:37:44.694Z,100886.05
2018-02-19T04:40:12.118Z,100879.88
2018-02-19T04:42:39.529Z,100870.13
2018-02-19T04:48:05.993Z,100856.66
2018-02-19T04:50:33.435Z,100852.73
2018-02-19T04:53:00.886Z,100847.14
2018-02-19T04:55:28.321Z,100849.71
2018-02-19T04:57:55.745Z,100848.55
2018-02-19T05:00:23.166Z,100851.59
2018-02-19T05:02:50.590Z,100846.61
2018-02-19T05:05:18.002Z,100839.75
2018-02-19T05:07:45.442Z,100843.91
2018-02-19T05:10:12.863Z,100846.94
2018-02-19T05:12:40.348Z,100843.09
2018-02-19T05:15:07.766Z,100837.08
2018-02-19T05:17:35.181Z,100840.13
2018-02-19T05:20:02.674Z,100831.84
2018-02-19T05:22:30.089Z,100826.23
2018-02-19T05:24:57.506Z,100827.36
2018-02-19T05:27:24.929Z,100822.05
2018-02-19T05:29:52.351Z,100833.03
2018-02-19T05:32:19.782Z,100826.81
2018-02-19T05:34:47.212Z,100833.80
2018-02-19T05:37:15.358Z,100829.58
2018-02-19T05:39:42.779Z,100832.34
2018-02-19T05:42:10.195Z,100823.30
2018-02-19T05:44:37.639Z,100832.48
2018-02-19T05:47:05.042Z,100830.34
2018-02-19T05:49:32.473Z,100824.48
2018-02-19T05:51:59.898Z,100828.27
2018-02-19T05:54:27.339Z,100827.45
2018-02-19T05:56:54.759Z,100820.76
2018-02-19T05:59:22.194Z,100819.29
2018-02-19T06:01:49.874Z,100819.79
2018-02-19T06:04:17.285Z,100826.77
2018-02-19T06:06:44.722Z,100828.23
2018-02-19T06:09:12.139Z,100827.51
2018-02-19T06:11:39.556Z,100825.04
2018-02-19T06:14:06.986Z,100835.66
2018-02-19T06:16:34.401Z,100835.52
2018-02-19T06:19:01.826Z,100839.00
2018-02-19T06:21:29.245Z,100846.33
2018-02-19T06:23:56.677Z,100844.47
2018-02-19T06:26:24.109Z,100842.99
2018-02-19T06:28:51.536Z,100851.50
2018-02-19T06:31:18.982Z,100847.22
2018-02-19T06:33:46.392Z,100843.55
2018-02-19T06:36:13.844Z,100835.18
2018-02-19T06:38:41.278Z,100831.18
2018-02-19T06:41:08.735Z,100824.97
2018-02-19T06:43:36.158Z,100827.73
2018-02-19T06:46:03.594Z,100833.83
2018-02-19T06:48:31.033Z,100834.63
2018-02-19T06:50:58.461Z,100838.73
2018-02-19T06:53:25.882Z,100837.20
2018-02-19T06:55:53.302Z,100833.39
2018-02-19T06:58:20.749Z,100830.97
2018-02-19T07:00:48.178Z,100835.41
2018-02-19T07:03:15.620Z,100840.85
2018-02-19T07:05:43.026Z,100842.16
2018-02-19T07:08:10.494Z,100842.05
2018-02-19T07:10:37.963Z,100841.35
2018-02-19T07:13:05.441Z,100837.39
2018-02-19T07:15:32.893Z,100827.87
2018-02-19T07:18:00.337Z,100831.25
2018-02-19T07:20:30.691Z,100824.59
2018-02-19T07:22:58.107Z,100824.14
2018-02-19T07:25:25.529Z,100822.81
2018-02-19T07:27:52.961Z,100829.73
2018-02-19T07:30:20.410Z,100835.98
2018-02-19T07:32:47.845Z,100833.16
2018-02-19T07:35:15.287Z,100830.58
2018-02-19T07:37:42.754Z,100827.66
2018-02-19T07:40:10.175Z,100830.56
2018-02-19T07:42:37.598Z,100827.41
2018-02-19T07:45:05.022Z,100828.64
2018-02-19T07:47:32.446Z,100823.38
2018-02-19T07:49:59.867Z,100815.77
2018-02-19T07:52:27.302Z,100816.19
2018-02-19T07:54:54.719Z,100806.34
2018-02-19T07:57:22.142Z,100815.60
2018-02-19T07:59:49.562Z,100817.41
2018-02-19T08:02:16.985Z,100818.28
2018-02-19T08:04:44.400Z,100812.48
2018-02-19T08:07:11.818Z,100816.76
2018-02-19T08:09:39.250Z,100808.27
2018-02-19T08:12:06.666Z,100806.23
2018-02-19T08:14:34.095Z,100803.64
2018-02-19T08:17:01.516Z,100805.88
2018-02-19T08:19:28.934Z,100798.45
2018-02-19T08:21:56.362Z,100797.53
2018-02-19T08:24:23.783Z,100793.75
2018-02-19T08:26:51.217Z,100797.65
2018-02-19T08:29:18.635Z,100803.13
2018-02-19T08:31:46.059Z,100795.76
2018-02-19T08:34:13.486Z,100788.76
2018-02-19T08:36:40.910Z,100780.20
2018-02-19T08:39:08.345Z,100774.62
2018-02-19T08:41:35.768Z,100778.50
2018-02-19T08:44:03.186Z,100779.63
2018-02-19T08:46:30.622Z,100775.95
2018-02-19T08:48:58.063Z,100781.92
2018-02-19T08:51:25.466Z,100776.11
2018-02-19T08:53:52.890Z,100774.72
2018-02-19T08:56:20.330Z,100772.94
2018-02-19T08:58:47.870Z,100766.50
2018-02-19T09:01:15.306Z,100767.52
2018-02-19T09:03:42.736Z,100774.05
2018-02-19T09:06:10.158Z,100771.36
2018-02-19T09:08:37.590Z,100765.92
2018-02-19T09:11:05.025Z,100758.46
2018-02-19T09:13:32.454Z,100753.08
2018-02-19T09:15:59.946Z,100747.76
2018-02-19T09:18:27.358Z,100748.45
2018-02-19T09:20:54.794Z,100751.23
2018-02-19T09:23:22.244Z,100751.31
2018-02-19T09:25:49.670Z,100743.84
2018-02-19T09:28:17.106Z,100753.52
2018-02-19T09:30:44.558Z,100745.59
2018-02-19T09:33:11.993Z,100744.14
2018-02-19T09:35:39.426Z,100737.80
2018-02-19T09:38:06.863Z,100735.16
2018-02-19T09:40:34.325Z,100733.83
2018-02-19T09:43:01.766Z,100735.84
2018-02-19T09:45:29.240Z,100742.55
2018-02-19T09:47:56.671Z,100741.68
2018-02-19T09:50:24.142Z,100743.42
2018-02-19T09:52:51.579Z,100736.13
2018-02-19T09:55:19.037Z,100746.25
2018-02-19T09:57:46.463Z,100736.13
2018-02-19T10:00:13.894Z,100727.66
2018-02-19T10:02:41.326Z,100729.54
2018-02-19T10:05:08.745Z,100728.19
2018-02-19T10:07:36.166Z,100721.25
2018-02-19T10:10:03.924Z,100709.62
2018-02-19T10:12:31.302Z,100716.95
2018-02-19T10:14:58.718Z,100728.82
2018-02-19T10:17:26.143Z,100726.18
2018-02-19T10:19:53.551Z,100725.20
2018-02-19T10:22:20.978Z,100723.92
2018-02-19T10:24:48.394Z,100723.80
2018-02-19T10:27:15.806Z,100732.84
2018-02-19T10:29:43.255Z,100727.88
2018-02-19T10:32:10.650Z,100729.09
2018-02-19T10:34:38.070Z,100732.02
2018-02-19T10:37:05.482Z,100731.93
2018-02-19T10:39:32.901Z,100724.06
2018-02-19T10:42:00.314Z,100722.56
2018-02-19T10:44:27.732Z,100716.05
2018-02-19T10:46:55.150Z,100715.61
2018-02-19T10:49:22.562Z,100714.52
2018-02-19T10:51:49.979Z,100712.36
2018-02-19T10:54:17.391Z,100711.87
2018-02-19T10:56:44.817Z,100707.03
2018-02-19T10:59:12.237Z,100710.55
2018-02-19T11:01:39.646Z,100711.28
2018-02-19T11:04:07.074Z,100709.13
2018-02-19T11:06:34.482Z,100715.47
2018-02-19T11:09:01.906Z,100721.06
2018-02-19T11:11:29.314Z,100717.77
2018-02-19T11:13:56.737Z,100722.36
2018-02-19T11:16:24.146Z,100720.22
2018-02-19T11:18:51.557Z,100721.13
2018-02-19T11:21:18.979Z,100718.63
2018-02-19T11:23:46.398Z,100711.55
2018-02-19T11:26:13.822Z,100704.70
2018-02-19T11:28:41.237Z,100699.04
2018-02-19T11:31:08.650Z,100695.44
2018-02-19T11:33:36.068Z,100706.78
2018-02-19T11:36:03.478Z,100695.27
2018-02-19T11:38:30.918Z,100691.88
2018-02-19T11:40:58.330Z,100687.98
2018-02-19T11:43:25.738Z,100684.01
2018-02-19T11:45:53.161Z,100678.35
2018-02-19T11:48:20.568Z,100675.22
2018-02-19T11:50:47.990Z,100672.23
2018-02-19T11:53:15.402Z,100661.66
2018-02-19T11:55:42.829Z,100659.51
2018-02-19T11:58:10.246Z,100653.38
2018-02-19T12:00:37.658Z,100659.66
2018-02-19T12:03:05.086Z,100666.63
2018-02-19T12:05:32.506Z,100666.83
2018-02-19T12:08:01.551Z,100659.61
2018-02-19T12:10:28.974Z,100658.67
2018-02-19T12:12:56.411Z,100652.91
2018-02-19T12:15:23.818Z,100649.08
2018-02-19T12:17:51.234Z,100647.84
2018-02-19T12:20:18.656Z,100640.97
2018-02-19T12:22:46.078Z,100635.98
2018-02-19T12:25:13.502Z,100632.86
2018-02-19T12:27:40.911Z,100632.63
2018-02-19T12:30:08.345Z,100626.30
2018-02-19T12:32:35.762Z,100623.48
2018-02-19T12:35:03.171Z,100623.05
2018-02-19T12:37:30.586Z,100620.82
2018-02-19T12:39:58.004Z,100621.41
2018-02-19T12:42:25.417Z,100620.50
2018-02-19T12:44:52.831Z,100621.78
2018-02-19T12:47:20.269Z,100607.13
2018-02-19T12:49:47.682Z,100614.34
2018-02-19T12:52:15.094Z,100615.94
2018-02-19T12:54:42.517Z,100613.33
2018-02-19T12:57:09.927Z,100604.45
2018-02-19T12:59:37.347Z,100598.39
2018-02-19T13:02:04.766Z,100602.50
2018-02-19T13:04:32.199Z,100600.13
2018-02-19T13:06:59.614Z,100595.19
2018-02-19T13:09:27.085Z,100593.14
2018-02-19T13:11:54.511Z,100588.96
2018-02-19T13:14:21.918Z,100584.33
2018-02-19T13:16:49.343Z,100590.33
2018-02-19T13:19:16.758Z,100590.75
2018-02-19T13:21:44.169Z,100587.44
2018-02-19T13:24:11.595Z,100577.08
2018-02-19T13:26:39.010Z,100577.53
2018-02-19T13:29:06.430Z,100575.09
2018-02-19T13:31:33.842Z,100564.92
2018-02-19T13:34:01.279Z,100569.02
2018-02-19T13:36:28.701Z,100567.93
2018-02-19T13:38:56.094Z,100564.78
2018-02-19T13:41:23.515Z,100571.25
2018-02-19T13:43:50.930Z,100568.73
2018-02-19T13:46:18.366Z,100552.63
2018-02-19T13:48:45.781Z,100560.52
2018-02-19T13:51:13.201Z,100553.59
2018-02-19T13:53:40.624Z,100560.57
2018-02-19T13:56:08.034Z,100556.98
2018-02-19T13:58:35.458Z,100552.86
2018-02-19T14:01:02.867Z,100556.25
2018-02-19T14:03:30.285Z,100548.82
2018-02-19T14:05:57.705Z,100546.56
2018-02-19T14:08:25.114Z,100546.94
2018-02-19T14:10:52.542Z,100546.48
2018-02-19T14:13:19.954Z,100541.31
2018-02-19T14:15:47.391Z,100542.86
2018-02-19T14:18:14.806Z,100532.78
2018-02-19T14:20:42.226Z,100537.86
2018-02-19T14:23:09.638Z,100540.58
2018-02-19T14:25:37.062Z,100538.87
2018-02-19T14:28:04.491Z,100542.11
2018-02-19T14:30:31.901Z,100539.97
2018-02-19T14:32:59.311Z,100533.55
2018-02-19T14:35:26.730Z,100536.34
2018-02-19T14:37:54.144Z,100536.61
2018-02-19T14:40:21.588Z,100534.98
2018-02-19T14:42:49.006Z,100530.99
2018-02-19T14:45:16.411Z,100535.33
2018-02-19T14:47:43.826Z,100528.80
2018-02-19T14:50:11.237Z,100526.02
2018-02-19T14:52:38.674Z,100521.27
2018-02-19T14:55:06.126Z,100519.83
2018-02-19T14:57:33.530Z,100517.92
2018-02-19T15:00:00.950Z,100516.16
2018-02-19T15:02:28.357Z,100512.72
2018-02-19T15:04:55.801Z,100519.92
2018-02-19T15:07:23.218Z,100511.01
2018-02-19T15:09:50.639Z,100513.60
2018-02-19T15:12:18.062Z,100513.85
2018-02-19T15:14:45.475Z,100504.87
2018-02-19T15:17:12.899Z,100509.70
2018-02-19T15:19:40.326Z,100508.22
2018-02-19T15:22:07.738Z,100507.59
2018-02-19T15:24:35.155Z,100505.24
2018-02-19T15:27:02.570Z,100500.38
2018-02-19T15:29:29.999Z,100500.16
2018-02-19T15:31:57.410Z,100499.47
2018-02-19T15:34:24.830Z,100502.61
2018-02-19T15:36:52.255Z,100506.05
2018-02-19T15:39:19.666Z,100503.78
2018-02-19T15:41:47.101Z,100505.33
2018-02-19T15:44:14.514Z,100500.17
2018-02-19T15:46:41.918Z,100501.03
2018-02-19T15:49:09.344Z,100498.70
2018-02-19T15:51:36.754Z,100504.67
2018-02-19T15:54:04.181Z,100490.84
2018-02-19T15:56:31.598Z,100488.89
2018-02-19T15:58:58.997Z,100490.26
2018-02-19T16:01:26.422Z,100491.36
2018-02-19T16:03:53.836Z,100492.27
2018-02-19T16:06:21.266Z,100498.41
2018-02-19T16:08:48.674Z,100493.80
2018-02-19T16:11:16.106Z,100485.27
2018-02-19T16:13:43.526Z,100482.20
2018-02-19T16:16:10.934Z,100484.37
2018-02-19T16:18:38.358Z,100484.06
2018-02-19T16:21:05.774Z,100479.29
2018-02-19T16:23:33.231Z,100483.14
2018-02-19T16:26:00.605Z,100492.15
2018-02-19T16:28:28.035Z,100484.83
2018-02-19T16:30:55.474Z,100487.48
2018-02-19T16:33:22.894Z,100484.78
2018-02-19T16:35:50.311Z,100486.60
2018-02-19T16:38:17.747Z,100479.91
2018-02-19T16:40:45.160Z,100482.66
2018-02-19T16:43:12.594Z,100485.41
2018-02-19T16:45:40.007Z,100486.56
2018-02-19T16:48:07.425Z,100484.76
2018-02-19T16:50:34.850Z,100483.27
2018-02-19T16:53:02.278Z,100483.98
2018-02-19T16:55:29.687Z,100485.38
2018-02-19T16:57:57.094Z,100483.83
2018-02-19T17:00:24.510Z,100488.05
2018-02-19T17:02:51.933Z,100494.56
2018-02-19T17:05:19.346Z,100489.05
2018-02-19T17:07:46.785Z,100488.32
2018-02-19T17:10:14.194Z,100490.64
2018-02-19T17:12:41.603Z,100486.59
2018-02-19T17:15:09.018Z,100491.69
2018-02-19T17:17:36.446Z,100489.62
2018-02-19T17:20:03.886Z,100492.71
2018-02-19T17:22:31.301Z,100495.13
2018-02-19T17:24:58.718Z,100495.36
2018-02-19T17:27:26.153Z,100495.95
2018-02-19T17:29:53.574Z,100498.00
2018-02-19T17:32:20.998Z,100494.16
2018-02-19T17:34:48.650Z,100489.70
2018-02-19T17:37:16.069Z,100492.02
2018-02-19T17:39:43.499Z,100488.09
2018-02-19T17:42:10.948Z,100484.78
2018-02-19T17:44:38.377Z,100490.41
2018-02-19T17:47:05.798Z,100487.29
2018-02-19T17:49:33.224Z,100486.64
2018-02-19T17:52:00.646Z,100488.95
2018-02-19T17:54:28.061Z,100495.23
2018-02-19T17:56:55.497Z,100486.48
2018-02-19T17:59:22.914Z,100485.89
2018-02-19T18:01:50.343Z,100491.11
2018-02-19T18:04:17.762Z,100486.88
2018-02-19T18:06:45.174Z,100486.80
2018-02-19T18:09:12.598Z,100482.05
2018-02-19T18:11:40.015Z,100483.52
2018-02-19T18:14:07.426Z,100495.55
2018-02-19T18:16:34.863Z,100491.94
2018-02-19T18:19:02.290Z,100488.08
2018-02-19T18:21:29.718Z,100484.44
2018-02-19T18:23:57.122Z,100483.61
2018-02-19T18:26:24.535Z,100477.20
2018-02-19T18:28:51.954Z,100482.22
2018-02-19T18:31:19.367Z,100483.30
2018-02-19T18:33:46.802Z,100487.75
2018-02-19T18:36:14.218Z,100477.11
2018-02-19T18:38:41.632Z,100483.70
2018-02-19T18:41:09.045Z,100481.14
2018-02-19T18:43:36.459Z,100484.98
2018-02-19T18:46:03.902Z,100482.94
2018-02-19T18:48:31.315Z,100483.59
2018-02-19T18:50:58.740Z,100480.22
2018-02-19T18:53:26.239Z,100483.09
2018-02-19T18:55:53.665Z,100482.05
2018-02-19T18:58:21.114Z,100486.15
2018-02-19T19:00:48.526Z,100483.03
2018-02-19T19:03:15.942Z,100488.30
2018-02-19T19:05:43.369Z,100483.27
2018-02-19T19:08:22.388Z,100481.44
2018-02-19T19:10:52.322Z,100490.20
2018-02-19T19:13:19.734Z,100487.47
2018-02-19T19:15:47.179Z,100489.20
2018-02-19T19:18:14.695Z,100491.66
2018-02-19T19:20:42.101Z,100495.47
2018-02-19T19:23:09.531Z,100490.67
2018-02-19T19:25:36.942Z,100493.16
2018-02-19T19:28:04.371Z,100496.55
2018-02-19T19:30:32.738Z,100490.95
2018-02-19T19:33:00.147Z,100486.74
2018-02-19T19:35:27.665Z,100485.09
2018-02-19T19:37:55.074Z,100477.98
2018-02-19T19:40:22.541Z,100483.59
2018-02-19T19:42:50.047Z,100482.22
2018-02-19T19:45:17.462Z,100478.59
2018-02-19T19:47:44.881Z,100479.08
2018-02-19T19:50:12.504Z,100476.83
2018-02-19T19:52:39.958Z,100476.43
2018-02-19T19:55:07.397Z,100479.07
2018-02-19T19:57:34.818Z,100473.47
2018-02-19T20:00:02.271Z,100475.77
2018-02-19T20:02:29.771Z,100470.30
2018-02-19T20:04:57.468Z,100472.48
2018-02-19T20:07:24.876Z,100472.62
2018-02-19T20:09:52.355Z,100471.58
2018-02-19T20:12:19.761Z,100472.48
2018-02-19T20:14:47.206Z,100474.79
2018-02-19T20:17:16.510Z,100476.11
2018-02-19T20:19:43.914Z,100470.98
2018-02-19T20:22:11.334Z,100469.84
2018-02-19T20:24:38.754Z,100469.17
2018-02-19T20:27:06.171Z,100474.83
2018-02-19T20:29:33.582Z,100474.83
2018-02-19T20:32:01.022Z,100474.50
2018-02-19T20:34:28.441Z,100483.72
2018-02-19T20:36:55.851Z,100476.86
2018-02-19T20:39:23.280Z,100471.89
2018-02-19T20:41:50.686Z,100475.09
2018-02-19T20:44:18.101Z,100477.99
2018-02-19T20:46:45.523Z,100476.07
2018-02-19T20:49:12.958Z,100473.95
2018-02-19T20:51:40.372Z,100469.05
2018-02-19T20:54:07.791Z,100470.94
2018-02-19T20:56:35.218Z,100474.80
2018-02-19T20:59:02.633Z,100469.52
2018-02-19T21:01:30.061Z,100470.47
2018-02-19T21:03:57.470Z,100467.16
2018-02-19T21:06:24.896Z,100458.17
2018-02-19T21:08:52.307Z,100465.96
2018-02-19T21:11:19.731Z,100462.81
2018-02-19T21:13:47.164Z,100457.17
2018-02-19T21:16:14.590Z,100461.48
2018-02-19T21:18:42.084Z,100455.23
2018-02-19T21:21:09.451Z,100456.03
2018-02-19T21:23:37.307Z,100448.69
2018-02-19T21:26:04.782Z,100445.44
2018-02-19T21:28:32.197Z,100446.00
2018-02-19T21:30:59.622Z,100442.17
2018-02-19T21:33:27.046Z,100440.33
2018-02-19T21:35:54.469Z,100439.67
2018-02-19T21:38:21.905Z,100441.27
2018-02-19T21:40:49.329Z,100431.73
2018-02-19T21:43:16.762Z,100437.41
2018-02-19T21:45:44.189Z,100437.22
2018-02-19T21:48:11.615Z,100425.86
2018-02-19T21:50:39.027Z,100428.64
2018-02-19T21:53:06.454Z,100431.83
2018-02-19T21:55:33.874Z,100430.08
2018-02-19T21:58:01.302Z,100421.67
2018-02-19T22:00:28.730Z,100417.63
2018-02-19T22:02:56.168Z,100427.89
2018-02-19T22:05:23.585Z,100418.59
2018-02-19T22:07:51.034Z,100423.44
2018-02-19T22:10:18.421Z,100422.59
2018-02-19T22:12:45.846Z,100426.14
2018-02-19T22:15:13.282Z,100427.60
2018-02-19T22:17:40.742Z,100435.30
2018-02-19T22:20:08.619Z,100439.15
2018-02-19T22:22:36.048Z,100440.78
2018-02-19T22:25:03.479Z,100440.62
2018-02-19T22:27:30.919Z,100438.27
2018-02-19T22:29:58.337Z,100439.01
2018-02-19T22:32:26.050Z,100433.02
2018-02-19T22:34:53.481Z,100437.50
2018-02-19T22:37:21.295Z,100431.92
2018-02-19T22:39:48.750Z,100432.04
2018-02-19T22:42:16.429Z,100433.61
2018-02-19T22:44:44.207Z,100442.28
2018-02-19T22:47:11.636Z,100446.03
2018-02-19T22:49:39.051Z,100440.66
2018-02-19T22:52:06.563Z,100447.03
2018-02-19T22:54:33.949Z,100446.34
2018-02-19T22:57:01.394Z,100454.39
2018-02-19T22:59:28.814Z,100451.63
2018-02-19T23:01:56.229Z,100449.30
2018-02-19T23:04:23.658Z,100459.06
2018-02-19T23:06:51.086Z,100458.84
2018-02-19T23:09:18.522Z,100457.20
2018-02-19T23:11:45.948Z,100459.84
2018-02-19T23:14:13.406Z,100456.06
2018-02-19T23:16:40.798Z,100451.38
2018-02-19T23:19:08.231Z,100450.95
2018-02-19T23:21:35.674Z,100448.77
2018-02-19T23:24:03.091Z,100452.84
2018-02-19T23:26:30.510Z,100454.31
2018-02-19T23:28:57.969Z,100459.09
2018-02-19T23:31:25.389Z,100454.16
2018-02-19T23:33:52.835Z,100455.09
2018-02-19T23:36:20.258Z,100454.25
2018-02-19T23:38:47.692Z,100445.77
2018-02-19T23:41:15.113Z,100450.17
2018-02-19T23:43:42.551Z,100448.56
2018-02-19T23:46:09.985Z,100450.20
2018-02-19T23:48:37.408Z,100453.37
2018-02-19T23:51:04.837Z,100451.84
2018-02-19T23:53:32.262Z,100452.57
2018-02-19T23:55:59.689Z,100448.33
2018-02-19T23:58:27.123Z,100451.97
